createdAt,value
2023-08-13T00:00:21.671Z,37.90
2023-08-13T00:01:16.786Z,38.24
2023-08-13T00:02:12.136Z,38.67
2023-08-13T00:03:07.202Z,38.85
2023-08-13T00:04:02.505Z,39.14
2023-08-13T00:04:57.521Z,39.36
2023-08-13T00:05:52.703Z,39.10
2023-08-13T00:06:47.827Z,38.96
2023-08-13T00:07:43.006Z,39.03
2023-08-13T00:08:38.065Z,38.88
2023-08-13T00:09:33.434Z,39.10
2023-08-13T00:10:28.552Z,39.51
2023-08-13T00:11:23.683Z,39.77
2023-08-13T00:12:18.840Z,39.92
2023-08-13T00:13:14.040Z,39.55
2023-08-13T00:14:09.385Z,39.29
2023-08-13T00:15:04.428Z,39.14
2023-08-13T00:15:59.644Z,38.63
2023-08-13T00:16:54.816Z,38.35
2023-08-13T00:17:49.961Z,38.17
2023-08-13T00:18:45.158Z,37.93
2023-08-13T00:19:40.468Z,37.49
2023-08-13T00:20:35.858Z,37.12
2023-08-13T00:21:30.732Z,37.02
2023-08-13T00:22:25.933Z,37.06
2023-08-13T00:23:20.908Z,37.29
2023-08-13T00:24:16.077Z,37.12
2023-08-13T00:25:11.393Z,37.15
2023-08-13T00:26:06.458Z,37.25
2023-08-13T00:27:01.593Z,37.35
2023-08-13T00:27:56.783Z,37.32
2023-08-13T00:28:51.934Z,37.39
2023-08-13T00:29:47.109Z,37.29
2023-08-13T00:30:42.407Z,36.96
2023-08-13T00:31:37.494Z,37.06
2023-08-13T00:32:32.642Z,36.57
2023-08-13T00:33:27.837Z,36.41
2023-08-13T00:34:22.954Z,36.16
2023-08-13T00:35:18.145Z,36.06
2023-08-13T00:36:13.312Z,36.03
2023-08-13T00:37:08.480Z,36.09
2023-08-13T00:38:03.608Z,36.06
2023-08-13T00:38:58.811Z,36.12
2023-08-13T00:39:53.962Z,36.31
2023-08-13T00:40:50.374Z,36.60
2023-08-13T00:41:44.314Z,36.96
2023-08-13T00:42:39.484Z,36.83
2023-08-13T00:43:34.646Z,36.79
2023-08-13T00:44:29.823Z,37.02
2023-08-13T00:45:24.945Z,37.35
2023-08-13T00:46:20.405Z,37.55
2023-08-13T00:47:15.324Z,37.72
2023-08-13T00:48:10.553Z,37.83
2023-08-13T00:49:05.554Z,38.03
2023-08-13T00:50:00.813Z,38.10
2023-08-13T00:50:56.120Z,37.55
2023-08-13T00:51:51.063Z,37.76
2023-08-13T00:52:46.205Z,37.76
2023-08-13T00:53:41.403Z,38.03
2023-08-13T00:54:36.551Z,38.03
2023-08-13T00:55:31.720Z,37.79
2023-08-13T00:56:27.048Z,37.72
2023-08-13T00:57:22.130Z,37.66
2023-08-13T00:58:17.245Z,37.39
2023-08-13T00:59:12.449Z,37.06
2023-08-13T01:00:07.606Z,36.89
2023-08-13T01:01:03.165Z,36.89
2023-08-13T01:01:57.979Z,36.92
2023-08-13T01:02:53.096Z,37.19
2023-08-13T01:03:48.085Z,37.59
2023-08-13T01:04:43.256Z,38.03
2023-08-13T01:05:38.383Z,38.49
2023-08-13T01:06:33.597Z,38.92
2023-08-13T01:07:28.731Z,39.40
2023-08-13T01:08:23.918Z,39.66
2023-08-13T01:09:19.112Z,39.62
2023-08-13T01:10:14.266Z,39.77
2023-08-13T01:11:09.713Z,39.66
2023-08-13T01:12:04.667Z,39.40
2023-08-13T01:12:59.806Z,39.10
2023-08-13T01:13:54.999Z,39.40
2023-08-13T01:14:50.153Z,39.40
2023-08-13T01:15:45.345Z,39.73
2023-08-13T01:16:40.664Z,39.96
2023-08-13T01:17:35.698Z,39.89
2023-08-13T01:18:30.827Z,40.35
2023-08-13T01:19:26.026Z,40.43
2023-08-13T01:20:21.174Z,40.39
2023-08-13T01:21:16.507Z,40.39
2023-08-13T01:22:11.600Z,40.19
2023-08-13T01:23:06.664Z,40.00
2023-08-13T01:24:01.832Z,39.51
2023-08-13T01:24:57.018Z,39.43
2023-08-13T01:25:52.154Z,39.10
2023-08-13T01:26:47.370Z,39.06
2023-08-13T01:27:42.507Z,38.96
2023-08-13T01:28:37.733Z,38.78
2023-08-13T01:29:32.733Z,38.67
2023-08-13T01:30:27.904Z,38.52
2023-08-13T01:31:23.194Z,38.49
2023-08-13T01:32:18.412Z,38.70
2023-08-13T01:33:13.414Z,38.85
2023-08-13T01:34:08.629Z,38.99
2023-08-13T01:35:03.767Z,39.25
2023-08-13T01:35:59.122Z,39.25
2023-08-13T01:36:54.001Z,39.66
2023-08-13T01:37:49.217Z,39.43
2023-08-13T01:38:44.328Z,39.58
2023-08-13T01:39:39.542Z,39.70
2023-08-13T01:40:34.650Z,39.58
2023-08-13T01:41:29.980Z,39.32
2023-08-13T01:42:25.005Z,39.73
2023-08-13T01:43:20.229Z,39.92
2023-08-13T01:44:15.455Z,39.81
2023-08-13T01:45:10.609Z,40.27
2023-08-13T01:46:05.823Z,40.19
2023-08-13T01:47:00.876Z,40.15
2023-08-13T01:47:56.077Z,40.47
2023-08-13T01:48:51.274Z,40.58
2023-08-13T01:49:46.443Z,40.86
2023-08-13T01:50:41.615Z,40.70
2023-08-13T01:51:37.080Z,40.94
2023-08-13T01:52:32.008Z,40.98
2023-08-13T01:53:27.156Z,41.22
2023-08-13T01:54:22.381Z,41.47
2023-08-13T01:55:17.526Z,41.80
2023-08-13T01:56:12.879Z,42.01
2023-08-13T01:57:07.791Z,42.31
2023-08-13T01:58:03.015Z,42.57
2023-08-13T01:58:58.125Z,42.57
2023-08-13T01:59:53.339Z,43.01
2023-08-13T02:00:48.628Z,42.79
2023-08-13T02:01:43.797Z,42.83
2023-08-13T02:02:38.821Z,42.70
2023-08-13T02:03:33.992Z,42.44
2023-08-13T02:04:29.185Z,42.35
2023-08-13T02:05:24.365Z,41.97
2023-08-13T02:06:19.673Z,42.18
2023-08-13T02:07:14.745Z,42.01
2023-08-13T02:08:09.877Z,41.93
2023-08-13T02:09:05.056Z,42.01
2023-08-13T02:10:00.251Z,42.14
2023-08-13T02:10:55.456Z,42.48
2023-08-13T02:11:50.939Z,42.48
2023-08-13T02:12:45.873Z,42.61
2023-08-13T02:13:41.017Z,42.18
2023-08-13T02:14:36.238Z,42.27
2023-08-13T02:15:31.350Z,42.18
2023-08-13T02:16:26.598Z,42.06
2023-08-13T02:17:21.618Z,41.93
2023-08-13T02:18:16.787Z,41.84
2023-08-13T02:19:11.959Z,41.76
2023-08-13T02:20:07.160Z,41.68
2023-08-13T02:21:02.317Z,41.55
2023-08-13T02:21:57.663Z,41.84
2023-08-13T02:22:52.717Z,41.64
2023-08-13T02:23:47.899Z,41.51
2023-08-13T02:24:43.096Z,41.51
2023-08-13T02:25:38.271Z,41.35
2023-08-13T02:26:33.468Z,41.72
2023-08-13T02:27:29.520Z,41.55
2023-08-13T02:28:24.813Z,41.64
2023-08-13T02:29:20.001Z,41.84
2023-08-13T02:30:15.186Z,41.97
2023-08-13T02:31:10.414Z,42.06
2023-08-13T02:32:05.446Z,42.18
2023-08-13T02:33:00.692Z,42.31
2023-08-13T02:33:55.875Z,42.57
2023-08-13T02:34:51.177Z,42.96
2023-08-13T02:35:46.207Z,43.55
2023-08-13T02:36:41.409Z,43.46
2023-08-13T02:37:36.646Z,43.73
2023-08-13T02:38:32.488Z,43.96
2023-08-13T02:39:27.718Z,44.24
2023-08-13T02:40:22.888Z,44.62
2023-08-13T02:41:19.307Z,44.71
2023-08-13T02:42:15.065Z,45.00
2023-08-13T02:43:10.360Z,45.44
2023-08-13T02:44:05.503Z,45.84
2023-08-13T02:45:00.741Z,46.09
2023-08-13T02:45:56.564Z,45.99
2023-08-13T02:46:51.930Z,45.74
2023-08-13T02:47:47.622Z,45.64
2023-08-13T02:48:42.728Z,45.44
2023-08-13T02:49:37.963Z,45.29
2023-08-13T02:50:33.726Z,45.00
2023-08-13T02:51:28.943Z,44.76
2023-08-13T02:52:24.298Z,44.52
2023-08-13T02:53:20.431Z,44.14
2023-08-13T02:54:15.659Z,43.96
2023-08-13T02:55:11.392Z,44.01
2023-08-13T02:56:06.602Z,43.91
2023-08-13T02:57:01.790Z,43.96
2023-08-13T02:58:09.564Z,44.01
2023-08-13T02:58:53.810Z,44.24
2023-08-13T02:59:48.643Z,44.01
2023-08-13T03:00:43.792Z,43.77
2023-08-13T03:01:39.170Z,43.68
2023-08-13T03:02:34.867Z,43.55
2023-08-13T03:03:35.691Z,43.64
2023-08-13T03:04:26.010Z,43.55
2023-08-13T03:05:20.289Z,43.64
2023-08-13T03:06:16.167Z,43.64
2023-08-13T03:07:11.265Z,43.96
2023-08-13T03:08:06.732Z,44.28
2023-08-13T03:09:02.640Z,44.28
2023-08-13T03:09:57.824Z,44.52
2023-08-13T03:10:53.751Z,44.52
2023-08-13T03:11:48.901Z,44.86
2023-08-13T03:12:44.293Z,45.19
2023-08-13T03:13:39.927Z,45.49
2023-08-13T03:14:35.141Z,45.69
2023-08-13T03:15:30.904Z,46.45
2023-08-13T03:16:26.139Z,46.87
2023-08-13T03:17:21.416Z,47.35
2023-08-13T03:18:17.372Z,47.86
2023-08-13T03:19:12.418Z,48.28
2023-08-13T03:20:07.571Z,48.25
2023-08-13T03:21:03.994Z,47.64
2023-08-13T03:21:59.209Z,47.92
2023-08-13T03:22:54.950Z,47.86
2023-08-13T03:23:50.327Z,48.00
2023-08-13T03:24:45.271Z,48.14
2023-08-13T03:25:41.176Z,48.11
2023-08-13T03:26:36.389Z,48.14
2023-08-13T03:27:32.283Z,48.36
2023-08-13T03:28:27.609Z,48.61
2023-08-13T03:29:22.704Z,48.67
2023-08-13T03:30:18.438Z,48.64
2023-08-13T03:31:13.674Z,48.53
2023-08-13T03:32:08.873Z,48.33
2023-08-13T03:33:05.162Z,48.14
2023-08-13T03:34:00.371Z,48.05
2023-08-13T03:34:56.163Z,47.97
2023-08-13T03:35:51.293Z,48.03
2023-08-13T03:36:46.526Z,48.00
2023-08-13T03:37:42.333Z,47.83
2023-08-13T03:38:37.498Z,47.67
2023-08-13T03:39:32.826Z,47.70
2023-08-13T03:40:27.945Z,47.72
2023-08-13T03:41:23.938Z,47.64
2023-08-13T03:42:19.287Z,47.59
2023-08-13T03:43:14.345Z,47.64
2023-08-13T03:44:10.405Z,47.86
2023-08-13T03:45:05.350Z,47.86
2023-08-13T03:46:01.267Z,47.94
2023-08-13T03:46:56.388Z,47.92
2023-08-13T03:47:51.664Z,47.94
2023-08-13T03:48:47.417Z,47.67
2023-08-13T03:49:42.857Z,47.53
2023-08-13T03:50:37.821Z,47.26
2023-08-13T03:51:34.452Z,47.03
2023-08-13T03:52:29.688Z,46.97
2023-08-13T03:53:25.541Z,46.66
2023-08-13T03:54:20.639Z,46.45
2023-08-13T03:55:15.921Z,46.30
2023-08-13T03:56:11.039Z,45.99
2023-08-13T03:57:06.313Z,46.14
2023-08-13T03:58:01.254Z,46.09
2023-08-13T03:59:01.482Z,46.14
2023-08-13T03:59:56.460Z,46.19
2023-08-13T04:00:51.751Z,46.40
2023-08-13T04:01:46.963Z,46.61
2023-08-13T04:02:43.162Z,46.35
2023-08-13T04:03:38.465Z,46.45
2023-08-13T04:04:33.740Z,46.19
2023-08-13T04:05:32.877Z,45.79
2023-08-13T04:06:28.120Z,45.44
2023-08-13T04:07:23.371Z,45.74
2023-08-13T04:08:18.631Z,45.79
2023-08-13T04:09:13.706Z,45.89
2023-08-13T04:10:08.824Z,45.69
2023-08-13T04:11:03.909Z,45.89
2023-08-13T04:11:58.909Z,46.25
2023-08-13T04:12:53.947Z,45.79
2023-08-13T04:13:49.116Z,45.74
2023-08-13T04:14:44.147Z,46.35
2023-08-13T04:15:39.270Z,46.71
2023-08-13T04:16:34.264Z,46.30
2023-08-13T04:17:29.377Z,46.40
2023-08-13T04:18:24.370Z,46.35
2023-08-13T04:19:19.390Z,46.35
2023-08-13T04:20:14.433Z,46.35
2023-08-13T04:21:09.688Z,45.99
2023-08-13T04:22:04.545Z,45.89
2023-08-13T04:22:59.588Z,45.69
2023-08-13T04:23:54.616Z,45.74
2023-08-13T04:24:49.653Z,45.84
2023-08-13T04:25:44.798Z,45.89
2023-08-13T04:26:39.684Z,45.99
2023-08-13T04:27:34.764Z,45.94
2023-08-13T04:28:32.721Z,46.14
2023-08-13T04:29:27.781Z,46.09
2023-08-13T04:30:22.796Z,45.94
2023-08-13T04:31:17.930Z,46.25
2023-08-13T04:32:13.059Z,46.45
2023-08-13T04:33:07.941Z,46.45
2023-08-13T04:34:02.931Z,46.45
2023-08-13T04:34:58.008Z,46.61
2023-08-13T04:35:53.338Z,46.61
2023-08-13T04:36:48.092Z,46.25
2023-08-13T04:37:43.232Z,45.84
2023-08-13T04:38:38.273Z,45.59
2023-08-13T04:39:34.077Z,45.29
2023-08-13T04:40:29.467Z,44.90
2023-08-13T04:41:24.693Z,44.90
2023-08-13T04:42:20.468Z,44.81
2023-08-13T04:43:15.853Z,44.86
2023-08-13T04:44:11.745Z,44.81
2023-08-13T04:45:06.973Z,44.90
2023-08-13T04:46:02.338Z,45.19
2023-08-13T04:46:58.119Z,45.59
2023-08-13T04:47:53.495Z,45.84
2023-08-13T04:48:50.341Z,45.99
2023-08-13T04:49:45.002Z,45.84
2023-08-13T04:50:40.454Z,45.84
2023-08-13T04:51:36.099Z,45.84
2023-08-13T04:52:31.467Z,45.89
2023-08-13T04:53:26.801Z,45.69
2023-08-13T04:54:22.497Z,45.69
2023-08-13T04:55:17.804Z,45.54
2023-08-13T04:56:13.649Z,45.69
2023-08-13T04:57:08.849Z,45.89
2023-08-13T04:58:04.374Z,46.19
2023-08-13T04:59:00.020Z,46.35
2023-08-13T04:59:55.385Z,46.50
2023-08-13T05:00:50.691Z,46.97
2023-08-13T05:01:47.202Z,47.05
2023-08-13T05:02:42.403Z,47.37
2023-08-13T05:03:38.208Z,47.56
2023-08-13T05:04:33.493Z,47.70
2023-08-13T05:05:28.902Z,47.75
2023-08-13T05:06:24.711Z,47.78
2023-08-13T05:07:19.884Z,48.00
2023-08-13T05:08:15.515Z,47.59
2023-08-13T05:09:10.921Z,47.70
2023-08-13T05:10:06.212Z,47.64
2023-08-13T05:11:01.610Z,47.70
2023-08-13T05:11:58.094Z,47.81
2023-08-13T05:12:53.241Z,47.70
2023-08-13T05:13:49.042Z,47.67
2023-08-13T05:14:44.468Z,47.75
2023-08-13T05:15:39.773Z,47.51
2023-08-13T05:16:35.600Z,47.43
2023-08-13T05:17:30.869Z,47.26
2023-08-13T05:18:26.839Z,47.10
2023-08-13T05:19:22.028Z,46.92
2023-08-13T05:20:17.489Z,46.82
2023-08-13T05:21:13.360Z,46.61
2023-08-13T05:22:08.656Z,46.25
2023-08-13T05:23:04.083Z,46.25
2023-08-13T05:24:00.276Z,46.25
2023-08-13T05:24:55.583Z,46.30
2023-08-13T05:25:51.146Z,46.45
2023-08-13T05:26:48.901Z,46.40
2023-08-13T05:27:43.309Z,46.25
2023-08-13T05:28:38.749Z,45.94
2023-08-13T05:29:34.107Z,45.74
2023-08-13T05:30:29.385Z,45.84
2023-08-13T05:31:25.977Z,45.79
2023-08-13T05:32:21.047Z,45.69
2023-08-13T05:33:16.505Z,45.69
2023-08-13T05:34:12.256Z,45.79
2023-08-13T05:35:07.723Z,45.94
2023-08-13T05:36:03.017Z,46.30
2023-08-13T05:36:58.368Z,46.19
2023-08-13T05:37:53.377Z,45.99
2023-08-13T05:38:48.447Z,46.04
2023-08-13T05:41:08.812Z,39.58
2023-08-13T05:42:04.029Z,39.14
2023-08-13T05:42:59.292Z,39.85
2023-08-13T05:43:54.736Z,40.35
2023-08-13T05:44:50.097Z,41.10
2023-08-13T05:45:45.480Z,41.18
2023-08-13T05:46:40.824Z,41.35
2023-08-13T05:47:36.094Z,41.43
2023-08-13T05:48:31.376Z,41.51
2023-08-13T05:49:26.697Z,41.55
2023-08-13T05:50:21.943Z,41.64
2023-08-13T05:51:17.527Z,41.39
2023-08-13T05:52:13.329Z,41.18
2023-08-13T05:53:08.047Z,40.90
2023-08-13T05:54:03.338Z,41.22
2023-08-13T05:54:58.751Z,40.90
2023-08-13T05:55:54.053Z,40.54
2023-08-13T05:56:49.449Z,40.35
2023-08-13T05:57:44.825Z,40.15
2023-08-13T05:58:40.296Z,39.96
2023-08-13T05:59:35.642Z,39.73
2023-08-13T06:00:31.015Z,39.81
2023-08-13T06:01:26.453Z,39.43
2023-08-13T06:02:21.860Z,39.47
2023-08-13T06:03:17.234Z,39.55
2023-08-13T06:04:12.449Z,39.40
2023-08-13T06:05:07.768Z,39.25
2023-08-13T06:06:03.246Z,39.10
2023-08-13T06:06:58.615Z,38.70
2023-08-13T06:07:53.964Z,38.99
2023-08-13T06:08:49.257Z,38.60
2023-08-13T06:09:44.622Z,38.52
2023-08-13T06:10:39.933Z,38.81
2023-08-13T06:11:35.506Z,39.17
2023-08-13T06:12:30.845Z,39.92
2023-08-13T06:13:26.373Z,40.70
2023-08-13T06:14:21.547Z,41.35
2023-08-13T06:15:17.023Z,41.93
2023-08-13T06:16:12.425Z,42.18
2023-08-13T06:17:14.378Z,42.18
2023-08-13T06:18:04.205Z,42.57
2023-08-13T06:18:58.598Z,42.14
2023-08-13T06:19:53.902Z,42.35
2023-08-13T06:20:49.376Z,42.27
2023-08-13T06:21:44.694Z,42.10
2023-08-13T06:22:40.395Z,41.26
2023-08-13T06:23:35.705Z,40.35
2023-08-13T06:24:31.051Z,39.62
2023-08-13T06:25:26.355Z,38.78
2023-08-13T06:26:21.714Z,38.38
2023-08-13T06:27:17.036Z,37.66
2023-08-13T06:28:12.561Z,37.29
2023-08-13T06:29:07.761Z,36.73
2023-08-13T06:30:58.586Z,36.47
2023-08-13T06:31:53.968Z,36.38
2023-08-13T06:32:49.330Z,36.47
2023-08-13T06:33:45.006Z,36.50
2023-08-13T06:34:40.050Z,36.70
2023-08-13T06:35:35.560Z,36.76
2023-08-13T06:36:30.898Z,36.76
2023-08-13T06:37:27.246Z,36.35
2023-08-13T06:38:21.905Z,36.57
2023-08-13T06:39:17.121Z,36.50
2023-08-13T06:40:12.416Z,36.92
2023-08-13T06:41:07.869Z,36.70
2023-08-13T06:42:03.129Z,36.73
2023-08-13T06:42:58.585Z,36.66
2023-08-13T06:43:53.995Z,36.70
2023-08-13T06:44:49.158Z,36.54
2023-08-13T06:45:44.419Z,36.70
2023-08-13T06:46:39.764Z,36.79
2023-08-13T06:47:35.019Z,36.76
2023-08-13T06:48:30.655Z,37.15
2023-08-13T06:49:25.867Z,37.59
2023-08-13T06:50:21.365Z,37.96
2023-08-13T06:51:16.775Z,38.21
2023-08-13T06:52:12.442Z,38.17
2023-08-13T06:53:07.533Z,38.31
2023-08-13T06:54:03.319Z,38.21
2023-08-13T06:54:58.381Z,38.10
2023-08-13T06:55:53.865Z,38.10
2023-08-13T06:56:49.208Z,38.31
2023-08-13T06:57:44.558Z,38.21
2023-08-13T06:58:39.870Z,38.24
2023-08-13T06:59:35.269Z,38.38
2023-08-13T07:00:39.371Z,38.67
2023-08-13T07:01:26.972Z,39.03
2023-08-13T07:02:21.362Z,39.29
2023-08-13T07:03:16.761Z,39.43
2023-08-13T07:04:12.345Z,39.43
2023-08-13T07:05:07.471Z,39.73
2023-08-13T07:06:02.746Z,39.77
2023-08-13T07:06:58.120Z,39.73
2023-08-13T07:07:53.426Z,40.00
2023-08-13T07:08:48.880Z,39.81
2023-08-13T07:09:44.401Z,40.04
2023-08-13T07:10:39.826Z,39.73
2023-08-13T07:11:34.998Z,39.92
2023-08-13T07:12:30.379Z,39.62
2023-08-13T07:13:25.756Z,39.55
2023-08-13T07:14:21.581Z,39.40
2023-08-13T07:15:16.840Z,39.21
2023-08-13T07:16:12.408Z,38.96
2023-08-13T07:17:07.786Z,38.49
2023-08-13T07:18:03.171Z,38.14
2023-08-13T07:18:58.466Z,37.76
2023-08-13T07:19:54.261Z,37.69
2023-08-13T07:20:49.323Z,37.76
2023-08-13T07:21:44.784Z,37.62
2023-08-13T07:22:40.107Z,37.69
2023-08-13T07:23:35.631Z,37.90
2023-08-13T07:24:31.177Z,38.28
2023-08-13T07:25:26.485Z,38.31
2023-08-13T07:26:21.991Z,37.09
2023-08-13T07:27:17.410Z,37.55
2023-08-13T07:28:12.803Z,37.96
2023-08-13T07:29:08.463Z,38.03
2023-08-13T07:30:03.868Z,38.07
2023-08-13T07:30:59.326Z,37.72
2023-08-13T07:31:54.906Z,37.12
2023-08-13T07:32:50.365Z,36.09
2023-08-13T07:33:45.774Z,35.03
2023-08-13T07:34:41.344Z,34.23
2023-08-13T07:35:36.890Z,33.06
2023-08-13T07:36:32.234Z,31.93
2023-08-13T07:37:27.979Z,31.07
2023-08-13T07:38:23.258Z,30.48
2023-08-13T07:39:18.680Z,29.96
2023-08-13T07:40:14.178Z,29.49
2023-08-13T07:41:09.619Z,29.02
2023-08-13T07:42:05.238Z,28.84
2023-08-13T07:43:00.637Z,28.80
2023-08-13T07:43:56.114Z,28.94
2023-08-13T07:44:51.671Z,29.02
2023-08-13T07:45:47.223Z,28.92
2023-08-13T07:46:42.448Z,28.76
2023-08-13T07:47:37.870Z,29.10
2023-08-13T07:48:33.258Z,29.35
2023-08-13T07:49:28.791Z,29.53
2023-08-13T07:50:24.224Z,29.24
2023-08-13T07:51:19.611Z,28.80
2023-08-13T07:52:15.275Z,29.18
2023-08-13T07:53:10.471Z,29.45
2023-08-13T07:54:05.816Z,29.35
2023-08-13T07:55:01.249Z,29.06
2023-08-13T07:55:56.781Z,29.14
2023-08-13T07:56:52.094Z,28.78
2023-08-13T07:57:47.528Z,28.84
2023-08-13T07:58:42.970Z,29.20
2023-08-13T07:59:38.368Z,29.89
2023-08-13T08:00:33.817Z,31.64
2023-08-13T08:01:29.248Z,32.99
2023-08-13T08:02:24.918Z,34.57
2023-08-13T08:03:20.267Z,36.60
2023-08-13T08:04:15.733Z,39.62
2023-08-13T08:05:11.336Z,42.74
2023-08-13T08:06:06.792Z,44.71
2023-08-13T08:07:02.248Z,46.45
2023-08-13T08:07:57.821Z,46.45
2023-08-13T08:08:53.082Z,45.29
2023-08-13T08:09:48.500Z,43.59
2023-08-13T08:10:43.929Z,42.31
2023-08-13T08:11:39.299Z,43.50
2023-08-13T08:12:34.651Z,45.10
2023-08-13T08:13:32.143Z,45.84
2023-08-13T08:14:25.455Z,46.30
2023-08-13T08:15:21.068Z,46.19
2023-08-13T08:16:16.424Z,46.25
2023-08-13T08:17:11.863Z,47.78
2023-08-13T08:18:07.478Z,48.64
2023-08-13T08:19:02.947Z,47.67
2023-08-13T08:19:58.313Z,46.40
2023-08-13T08:20:53.896Z,46.92
2023-08-13T08:21:49.188Z,48.11
2023-08-13T08:22:44.625Z,48.53
2023-08-13T08:23:40.066Z,50.04
2023-08-13T08:24:35.571Z,50.44
2023-08-13T08:25:31.008Z,51.69
2023-08-13T08:26:26.577Z,53.30
2023-08-13T08:27:21.842Z,54.77
2023-08-13T08:28:17.257Z,57.41
2023-08-13T08:29:12.682Z,58.95
2023-08-13T08:30:08.058Z,60.01
2023-08-13T08:31:03.787Z,60.58
2023-08-13T08:31:58.918Z,61.20
2023-08-13T08:32:54.311Z,61.97
2023-08-13T08:33:49.685Z,62.35
2023-08-13T08:34:45.110Z,61.43
2023-08-13T08:35:40.575Z,62.44
2023-08-13T08:36:35.860Z,62.58
2023-08-13T08:37:31.226Z,61.74
2023-08-13T08:38:26.636Z,60.40
2023-08-13T08:39:22.022Z,57.77
2023-08-13T08:40:17.464Z,53.65
2023-08-13T08:41:13.025Z,51.56
2023-08-13T08:42:08.461Z,49.95
2023-08-13T08:43:03.828Z,48.25
2023-08-13T08:43:59.365Z,48.50
2023-08-13T08:44:54.694Z,47.64
2023-08-13T08:45:50.326Z,47.70
2023-08-13T08:46:45.655Z,48.17
2023-08-13T08:47:41.055Z,50.44
2023-08-13T08:48:36.581Z,52.10
2023-08-13T08:49:31.999Z,54.10
2023-08-13T08:50:27.520Z,52.76
2023-08-13T08:51:22.865Z,52.97
2023-08-13T08:52:18.247Z,51.27
2023-08-13T08:53:13.674Z,50.50
2023-08-13T08:54:09.082Z,51.12
2023-08-13T08:55:04.734Z,51.46
2023-08-13T08:56:00.020Z,49.86
2023-08-13T08:56:55.596Z,50.90
2023-08-13T08:57:51.034Z,50.04
2023-08-13T08:58:46.459Z,50.47
2023-08-13T08:59:42.019Z,53.99
2023-08-13T09:00:37.678Z,57.81
2023-08-13T09:01:32.995Z,58.99
2023-08-13T09:02:28.589Z,60.49
2023-08-13T09:03:24.031Z,64.56
2023-08-13T09:04:19.479Z,67.54
2023-08-13T09:05:15.031Z,71.54
2023-08-13T09:06:21.259Z,74.54
2023-08-13T09:07:06.795Z,77.02
2023-08-13T09:08:01.308Z,77.74
2023-08-13T09:08:56.743Z,80.28
2023-08-13T09:09:52.208Z,81.62
2023-08-13T09:10:47.779Z,84.25
2023-08-13T09:11:43.232Z,87.43
2023-08-13T09:12:38.660Z,91.46
2023-08-13T09:13:34.092Z,92.78
2023-08-13T09:14:29.516Z,90.96
2023-08-13T09:15:25.317Z,85.99
2023-08-13T09:16:20.427Z,86.61
2023-08-13T09:17:16.029Z,90.27
2023-08-13T09:18:11.326Z,95.00
2023-08-13T09:19:13.909Z,97.93
2023-08-13T09:20:03.181Z,99.99
2023-08-13T09:20:57.656Z,101.32
2023-08-13T09:21:53.277Z,99.21
2023-08-13T09:22:48.717Z,92.99
2023-08-13T09:23:44.152Z,92.88
2023-08-13T09:24:39.633Z,97.70
2023-08-13T09:25:35.251Z,104.43
2023-08-13T09:26:30.796Z,106.97
2023-08-13T09:27:26.314Z,106.90
2023-08-13T09:28:21.817Z,106.63
2023-08-13T09:29:17.463Z,110.00
2023-08-13T09:30:12.973Z,112.53
2023-08-13T09:31:08.649Z,109.93
2023-08-13T09:32:03.920Z,110.22
2023-08-13T09:32:59.406Z,113.21
2023-08-13T09:33:54.911Z,111.25
2023-08-13T09:34:50.281Z,114.30
2023-08-13T09:35:45.900Z,118.18
2023-08-13T09:36:41.139Z,112.68
2023-08-13T09:37:36.621Z,121.54
2023-08-13T09:38:31.957Z,124.44
2023-08-13T09:39:27.530Z,127.58
2023-08-13T09:40:23.126Z,124.63
2023-08-13T09:41:18.674Z,121.19
2023-08-13T09:42:17.171Z,119.37
2023-08-13T09:43:09.728Z,120.05
2023-08-13T09:44:05.329Z,114.14
2023-08-13T09:45:00.720Z,106.90
2023-08-13T09:45:56.515Z,101.14
2023-08-13T09:46:51.894Z,96.18
2023-08-13T09:47:47.320Z,92.26
2023-08-13T09:48:42.746Z,94.57
2023-08-13T09:49:38.303Z,100.95
2023-08-13T09:50:33.699Z,99.04
2023-08-13T09:51:36.977Z,95.47
2023-08-13T09:52:25.631Z,98.16
2023-08-13T09:53:20.129Z,107.45
2023-08-13T09:54:15.635Z,115.09
2023-08-13T09:55:11.142Z,118.02
2023-08-13T09:56:06.836Z,111.18
2023-08-13T09:57:02.170Z,103.26
2023-08-13T09:57:57.855Z,103.97
2023-08-13T09:58:53.577Z,106.36
2023-08-13T09:59:49.017Z,111.10
2023-08-13T10:00:44.262Z,117.02
2023-08-13T10:01:39.936Z,121.36
2023-08-13T10:02:35.476Z,121.99
2023-08-13T10:03:31.389Z,113.83
2023-08-13T10:04:26.695Z,122.34
2023-08-13T10:05:22.290Z,134.14
2023-08-13T10:06:17.919Z,141.90
2023-08-13T10:07:13.064Z,146.77
2023-08-13T10:08:08.677Z,143.61
2023-08-13T10:09:04.223Z,149.80
2023-08-13T10:10:07.917Z,149.53
2023-08-13T10:10:56.477Z,144.61
2023-08-13T10:11:51.097Z,144.86
2023-08-13T10:12:46.469Z,149.13
2023-08-13T10:13:42.074Z,149.93
2023-08-13T10:14:37.454Z,149.80
2023-08-13T10:15:32.793Z,135.56
2023-08-13T10:16:28.398Z,140.35
2023-08-13T10:17:24.098Z,145.24
2023-08-13T10:18:19.521Z,156.69
2023-08-13T10:19:14.760Z,157.13
2023-08-13T10:20:10.148Z,162.33
2023-08-13T10:21:05.519Z,167.88
2023-08-13T10:22:01.059Z,170.63
2023-08-13T10:22:56.396Z,163.12
2023-08-13T10:23:51.898Z,156.54
2023-08-13T10:24:47.272Z,143.86
2023-08-13T10:25:42.794Z,148.86
2023-08-13T10:26:38.278Z,148.60
2023-08-13T10:27:33.959Z,145.74
2023-08-13T10:28:29.302Z,139.88
2023-08-13T10:29:24.701Z,135.56
2023-08-13T10:30:20.047Z,134.68
2023-08-13T10:31:15.552Z,138.26
2023-08-13T10:32:11.247Z,133.71
2023-08-13T10:33:06.779Z,129.16
2023-08-13T10:34:02.335Z,135.67
2023-08-13T10:34:57.594Z,146.12
2023-08-13T10:35:53.078Z,151.43
2023-08-13T10:36:48.757Z,156.84
2023-08-13T10:37:44.000Z,160.15
2023-08-13T10:38:39.502Z,164.41
2023-08-13T10:39:35.114Z,167.04
2023-08-13T10:40:30.385Z,168.22
2023-08-13T10:41:26.303Z,158.78
2023-08-13T10:42:21.372Z,147.81
2023-08-13T10:43:16.878Z,138.83
2023-08-13T10:44:12.404Z,137.12
2023-08-13T10:45:07.905Z,141.66
2023-08-13T10:46:03.416Z,139.18
2023-08-13T10:46:59.084Z,152.68
2023-08-13T10:47:54.626Z,162.49
2023-08-13T10:48:50.020Z,170.80
2023-08-13T10:49:45.517Z,176.03
2023-08-13T10:50:41.052Z,183.58
2023-08-13T10:51:36.676Z,184.19
2023-08-13T10:52:32.033Z,187.00
2023-08-13T10:53:27.606Z,186.36
2023-08-13T10:54:23.209Z,190.03
2023-08-13T10:55:18.765Z,203.21
2023-08-13T10:56:14.435Z,210.92
2023-08-13T10:57:09.798Z,210.51
2023-08-13T10:58:05.282Z,206.54
2023-08-13T10:59:00.668Z,207.19
2023-08-13T10:59:56.116Z,215.77
2023-08-13T11:00:51.802Z,214.93
2023-08-13T11:01:47.091Z,217.63
2023-08-13T11:02:42.630Z,214.79
2023-08-13T11:03:38.287Z,196.05
2023-08-13T11:04:33.841Z,192.71
2023-08-13T11:05:29.189Z,193.16
2023-08-13T11:06:24.736Z,193.73
2023-08-13T11:07:20.180Z,199.51
2023-08-13T11:08:15.677Z,205.12
2023-08-13T11:09:11.158Z,211.19
2023-08-13T11:10:06.535Z,208.90
2023-08-13T11:11:02.332Z,205.89
2023-08-13T11:11:57.598Z,209.44
2023-08-13T11:12:52.930Z,213.11
2023-08-13T11:13:48.648Z,206.02
2023-08-13T11:14:43.758Z,197.23
2023-08-13T11:15:39.414Z,202.71
2023-08-13T11:16:34.739Z,216.91
2023-08-13T11:17:30.442Z,219.97
2023-08-13T11:18:25.891Z,218.50
2023-08-13T11:19:21.528Z,215.49
2023-08-13T11:20:16.900Z,218.36
2023-08-13T11:21:12.686Z,208.11
2023-08-13T11:22:07.831Z,209.71
2023-08-13T11:23:03.246Z,206.41
2023-08-13T11:23:58.716Z,206.02
2023-08-13T11:24:54.220Z,197.82
2023-08-13T11:25:49.586Z,185.52
2023-08-13T11:26:45.085Z,201.59
2023-08-13T11:27:40.606Z,209.71
2023-08-13T11:28:36.082Z,203.09
2023-08-13T11:29:31.515Z,206.67
2023-08-13T11:30:27.117Z,209.57
2023-08-13T11:31:22.630Z,211.33
2023-08-13T11:32:18.043Z,212.42
2023-08-13T11:33:13.650Z,215.21
2023-08-13T11:34:09.096Z,207.19
2023-08-13T11:35:04.570Z,198.06
2023-08-13T11:36:00.238Z,200.11
2023-08-13T11:36:55.846Z,206.28
2023-08-13T11:37:51.176Z,215.07
2023-08-13T11:38:46.547Z,222.50
2023-08-13T11:39:42.055Z,218.07
2023-08-13T11:42:00.910Z,219.23
2023-08-13T11:42:56.169Z,199.63
2023-08-13T11:43:52.440Z,191.47
2023-08-13T11:44:46.875Z,190.36
2023-08-13T11:45:42.363Z,192.03
2023-08-13T11:46:37.828Z,192.82
2023-08-13T11:47:33.524Z,190.03
2023-08-13T11:48:29.134Z,184.60
2023-08-13T11:49:24.434Z,186.15
2023-08-13T11:50:19.929Z,188.72
2023-08-13T11:51:20.930Z,187.21
2023-08-13T11:52:11.789Z,179.63